createdAt,value
2023-11-14T00:01:07.956Z,23.20
2023-11-14T00:03:36.708Z,32.53
2023-11-14T00:06:05.892Z,30.17
2023-11-14T00:08:34.114Z,31.83
2023-11-14T00:11:03.246Z,26.23
2023-11-14T00:13:31.568Z,27.07
2023-11-14T00:15:59.990Z,37.27
2023-11-14T00:18:29.848Z,28.20
2023-11-14T00:20:59.406Z,25.07
2023-11-14T00:23:27.778Z,26.50
2023-11-14T00:25:56.164Z,32.93
2023-11-14T00:28:25.200Z,28.17
2023-11-14T00:30:53.537Z,25.53
2023-11-14T00:33:23.449Z,37.83
2023-11-14T00:35:53.174Z,28.33
2023-11-14T00:38:21.441Z,24.10
2023-11-14T00:40:49.687Z,30.63
2023-11-14T00:43:17.988Z,27.73
2023-11-14T00:45:46.164Z,32.60
2023-11-14T00:48:14.341Z,25.10
2023-11-14T00:50:42.633Z,30.53
2023-11-14T00:53:12.545Z,30.63
2023-11-14T00:55:40.877Z,31.67
2023-11-14T00:58:09.235Z,29.17
2023-11-14T01:00:38.469Z,38.93
2023-11-14T01:03:07.061Z,34.13
2023-11-14T01:05:35.397Z,30.13
2023-11-14T01:08:03.657Z,33.33
2023-11-14T01:10:33.604Z,30.27
2023-11-14T01:13:02.191Z,33.23
2023-11-14T01:15:30.554Z,24.53
2023-11-14T01:17:59.017Z,27.90
2023-11-14T01:20:27.500Z,28.20
2023-11-14T01:22:55.835Z,29.60
2023-11-14T01:25:24.819Z,28.63
2023-11-14T01:27:54.473Z,24.03
2023-11-14T01:30:22.856Z,29.97
2023-11-14T01:32:51.244Z,26.00
2023-11-14T01:35:19.505Z,23.50
2023-11-14T01:37:47.890Z,29.47
2023-11-14T01:40:16.210Z,30.40
2023-11-14T01:42:44.493Z,33.67
2023-11-14T01:45:15.057Z,29.30
2023-11-14T01:47:47.661Z,29.93
2023-11-14T01:50:18.265Z,28.40
2023-11-14T01:52:46.901Z,25.50
2023-11-14T01:55:15.227Z,25.90
2023-11-14T01:57:44.292Z,29.33
2023-11-14T02:00:15.007Z,27.13
2023-11-14T02:02:43.433Z,27.97
2023-11-14T02:05:12.016Z,24.77
2023-11-14T02:07:40.774Z,25.17
2023-11-14T02:10:09.452Z,25.30
2023-11-14T02:12:37.935Z,31.67
2023-11-14T02:15:07.124Z,28.20
2023-11-14T02:17:37.316Z,30.13
2023-11-14T02:20:06.477Z,23.63
2023-11-14T02:22:34.865Z,27.93
2023-11-14T02:25:05.553Z,32.53
2023-11-14T02:27:33.982Z,24.80
2023-11-14T02:30:04.111Z,26.90
2023-11-14T02:32:32.819Z,27.30
2023-11-14T02:35:01.177Z,31.53
2023-11-14T02:37:29.853Z,30.73
2023-11-14T02:39:58.324Z,26.07
2023-11-14T02:42:28.444Z,27.67
2023-11-14T02:45:00.121Z,30.77
2023-11-14T02:47:28.764Z,19.77
2023-11-14T02:49:59.641Z,24.23
2023-11-14T02:52:28.150Z,23.53
2023-11-14T02:54:56.475Z,30.27
2023-11-14T02:57:25.162Z,26.33
2023-11-14T02:59:54.823Z,30.60
2023-11-14T03:02:23.606Z,26.80
2023-11-14T03:04:52.550Z,32.27
2023-11-14T03:07:20.984Z,29.70
2023-11-14T03:09:49.447Z,27.67
2023-11-14T03:12:18.656Z,32.60
2023-11-14T03:14:46.936Z,29.10
2023-11-14T03:17:16.928Z,49.83
2023-11-14T03:19:45.332Z,49.27
2023-11-14T03:22:13.657Z,42.23
2023-11-14T03:24:41.981Z,43.87
2023-11-14T03:27:10.402Z,39.90
2023-11-14T03:29:38.736Z,38.47
2023-11-14T03:32:07.368Z,40.70
2023-11-14T03:34:37.226Z,51.80
2023-11-14T03:37:06.022Z,79.37
2023-11-14T03:39:35.039Z,74.03
2023-11-14T03:42:03.481Z,82.17
2023-11-14T03:44:31.861Z,63.67
2023-11-14T03:47:00.295Z,44.77
2023-11-14T03:49:28.670Z,53.97
2023-11-14T03:51:58.991Z,43.60
2023-11-14T03:54:27.320Z,37.87
2023-11-14T03:56:55.604Z,30.97
2023-11-14T03:59:24.533Z,23.00
2023-11-14T04:01:52.933Z,31.70
2023-11-14T04:04:21.237Z,28.13
2023-11-14T04:06:49.568Z,22.87
2023-11-14T04:09:19.811Z,31.20
2023-11-14T04:11:48.497Z,23.23
2023-11-14T04:14:17.162Z,30.57
2023-11-14T04:16:45.665Z,30.63
2023-11-14T04:19:14.288Z,28.90
2023-11-14T04:21:43.063Z,25.83
2023-11-14T04:24:11.383Z,30.03
2023-11-14T04:26:41.967Z,41.47
2023-11-14T04:29:10.719Z,25.90
2023-11-14T04:31:39.169Z,26.27
2023-11-14T04:34:08.066Z,23.47
2023-11-14T04:36:36.854Z,25.70
2023-11-14T04:39:06.062Z,34.50
2023-11-14T04:41:34.279Z,25.17
2023-11-14T04:44:04.489Z,27.83
2023-11-14T04:46:32.904Z,27.90
2023-11-14T04:49:01.254Z,22.87
2023-11-14T04:51:29.585Z,26.13
2023-11-14T04:53:57.958Z,26.30
2023-11-14T04:56:26.401Z,21.87
2023-11-14T04:58:54.677Z,26.00
2023-11-14T05:01:24.500Z,28.50
2023-11-14T05:03:52.989Z,29.17
2023-11-14T05:06:21.382Z,25.10
2023-11-14T05:08:49.661Z,25.70
2023-11-14T05:11:18.190Z,26.43
2023-11-14T05:13:46.487Z,25.30
2023-11-14T05:16:22.339Z,24.10
2023-11-14T05:18:54.534Z,21.20
2023-11-14T05:21:23.074Z,24.13
2023-11-14T05:23:51.353Z,23.60
2023-11-14T05:26:19.515Z,27.30
2023-11-14T05:28:48.489Z,21.03
2023-11-14T05:31:16.815Z,23.47
2023-11-14T05:33:46.091Z,23.40
2023-11-14T05:36:16.666Z,28.60
2023-11-14T05:38:46.375Z,19.50
2023-11-14T05:41:15.508Z,25.07
2023-11-14T05:43:44.079Z,19.67
2023-11-14T05:46:12.668Z,38.20
2023-11-14T05:48:41.063Z,22.50
2023-11-14T05:51:09.660Z,23.63
2023-11-14T05:53:44.032Z,28.30
2023-11-14T05:56:12.301Z,27.73
2023-11-14T05:58:41.002Z,26.57
2023-11-14T06:01:11.421Z,22.90
2023-11-14T06:03:39.861Z,28.60
2023-11-14T06:06:08.614Z,21.13
2023-11-14T06:08:36.945Z,22.13
2023-11-14T06:11:07.550Z,24.97
2023-11-14T06:13:35.870Z,23.63
2023-11-14T06:16:04.502Z,23.80
2023-11-14T06:18:32.804Z,23.77
2023-11-14T06:21:01.439Z,26.47
2023-11-14T06:23:29.767Z,22.90
2023-11-14T06:25:59.462Z,22.77
2023-11-14T06:28:30.364Z,23.00
2023-11-14T06:30:58.946Z,25.63
2023-11-14T06:33:27.260Z,26.97
2023-11-14T06:35:56.681Z,20.33
2023-11-14T06:38:24.949Z,26.33
2023-11-14T06:40:53.323Z,19.30
2023-11-14T06:43:21.648Z,28.23
2023-11-14T06:45:52.085Z,26.83
2023-11-14T06:48:20.311Z,26.30
2023-11-14T06:50:50.282Z,19.70
2023-11-14T06:53:20.433Z,25.83
2023-11-14T06:55:48.843Z,21.33
2023-11-14T06:58:17.088Z,26.47
2023-11-14T07:00:46.342Z,23.27
2023-11-14T07:03:16.173Z,24.30
2023-11-14T07:05:44.590Z,25.57
2023-11-14T07:08:12.878Z,26.77
2023-11-14T07:10:41.927Z,22.90
2023-11-14T07:13:10.997Z,25.87
2023-11-14T07:15:39.540Z,22.63
2023-11-14T07:18:10.478Z,20.90
2023-11-14T07:20:40.336Z,20.40
2023-11-14T07:23:08.707Z,22.83
2023-11-14T07:25:40.266Z,23.90
2023-11-14T07:28:08.586Z,29.80
2023-11-14T07:30:36.903Z,25.67
2023-11-14T07:33:05.428Z,20.10
2023-11-14T07:35:38.893Z,24.07
2023-11-14T07:38:09.138Z,27.40
2023-11-14T07:40:37.424Z,28.37
2023-11-14T07:43:07.951Z,28.57
2023-11-14T07:45:36.976Z,24.67
2023-11-14T07:48:05.552Z,25.97
2023-11-14T07:50:34.780Z,25.83
2023-11-14T07:53:03.170Z,26.87
2023-11-14T07:55:33.532Z,24.73
2023-11-14T07:58:01.911Z,21.13
2023-11-14T08:00:31.925Z,24.77
2023-11-14T08:03:00.412Z,27.13
2023-11-14T08:05:29.281Z,25.60
2023-11-14T08:07:57.624Z,26.73
2023-11-14T08:10:25.910Z,24.97
2023-11-14T08:12:55.684Z,25.77
2023-11-14T08:15:24.054Z,23.23
2023-11-14T08:17:52.818Z,24.97
2023-11-14T08:20:21.390Z,19.27
2023-11-14T08:22:50.364Z,18.47
2023-11-14T08:25:21.490Z,25.37
2023-11-14T08:27:50.250Z,23.60
2023-11-14T08:30:20.039Z,18.33
2023-11-14T08:32:48.613Z,21.97
2023-11-14T08:35:17.253Z,22.83
2023-11-14T08:37:45.630Z,26.07
2023-11-14T08:40:14.773Z,24.07
2023-11-14T08:42:43.000Z,23.57
2023-11-14T08:45:11.390Z,23.00
2023-11-14T08:47:41.228Z,31.30
2023-11-14T08:50:12.817Z,21.33
2023-11-14T08:52:41.433Z,21.67
2023-11-14T08:55:09.959Z,22.03
2023-11-14T08:57:38.339Z,21.13
2023-11-14T09:00:10.651Z,20.50
2023-11-14T09:02:40.662Z,25.80
2023-11-14T09:05:11.759Z,16.40
2023-11-14T09:07:40.191Z,24.90
2023-11-14T09:10:09.283Z,22.93
2023-11-14T09:12:37.629Z,28.80
2023-11-14T09:15:06.861Z,25.00
2023-11-14T09:17:35.900Z,28.87
2023-11-14T09:20:07.223Z,24.90
2023-11-14T09:22:35.539Z,19.77
2023-11-14T09:25:04.890Z,22.07
2023-11-14T09:27:33.256Z,18.53
2023-11-14T09:30:01.848Z,19.83
2023-11-14T09:32:30.438Z,18.03
2023-11-14T09:34:58.906Z,20.57
2023-11-14T09:37:29.338Z,21.13
2023-11-14T09:39:57.713Z,13.97
2023-11-14T09:42:26.510Z,15.53
2023-11-14T09:44:55.206Z,15.00
2023-11-14T09:47:23.768Z,16.80
2023-11-14T09:49:52.185Z,11.53
2023-11-14T09:52:21.781Z,10.77
2023-11-14T09:54:51.926Z,14.00
2023-11-14T09:57:20.594Z,10.80
2023-11-14T09:59:48.901Z,8.30
2023-11-14T10:02:17.344Z,10.47
2023-11-14T10:04:45.867Z,7.20
2023-11-14T10:07:18.961Z,8.27
2023-11-14T10:09:48.825Z,9.97
2023-11-14T10:12:32.203Z,5.87
2023-11-14T10:15:02.035Z,6.90
2023-11-14T10:17:41.057Z,4.30
2023-11-14T10:20:10.982Z,4.43
2023-11-14T10:22:47.252Z,8.00
2023-11-14T10:25:28.410Z,7.13
2023-11-14T10:27:58.912Z,5.83
2023-11-14T10:30:41.826Z,4.50
2023-11-14T10:33:10.602Z,6.33
2023-11-14T10:35:39.339Z,6.20
2023-11-14T10:38:18.361Z,8.53
2023-11-14T10:40:47.400Z,7.73
2023-11-14T10:43:15.937Z,9.00
2023-11-14T10:45:46.609Z,7.67
2023-11-14T10:48:21.723Z,7.03
2023-11-14T10:50:50.993Z,6.50
2023-11-14T10:53:19.714Z,8.23
2023-11-14T10:55:51.476Z,8.53
2023-11-14T10:58:21.471Z,5.63
2023-11-14T11:00:51.214Z,5.70
2023-11-14T11:03:20.007Z,7.20
2023-11-14T11:05:49.425Z,8.93
2023-11-14T11:08:17.849Z,8.53
2023-11-14T11:10:46.414Z,10.53
2023-11-14T11:13:15.865Z,7.80
2023-11-14T11:15:45.070Z,8.47
2023-11-14T11:18:15.171Z,10.77
2023-11-14T11:20:44.653Z,11.17
2023-11-14T11:23:14.884Z,17.47
2023-11-14T11:25:43.808Z,15.03
2023-11-14T11:28:30.395Z,12.23
2023-11-14T11:31:08.551Z,14.47
2023-11-14T11:33:38.858Z,20.87
2023-11-14T11:36:25.224Z,21.27
2023-11-14T11:38:54.225Z,20.13
2023-11-14T11:41:23.766Z,21.83
2023-11-14T11:44:00.490Z,18.73
2023-11-14T11:46:40.192Z,23.20
2023-11-14T11:49:39.035Z,20.20
2023-11-14T11:52:13.212Z,24.97
2023-11-14T11:54:42.144Z,20.87
2023-11-14T11:57:11.901Z,25.83
2023-11-14T11:59:58.969Z,20.57
2023-11-14T12:02:28.827Z,23.60
2023-11-14T12:04:59.243Z,20.43
2023-11-14T12:07:31.988Z,18.37
2023-11-14T12:10:00.832Z,16.00
2023-11-14T12:12:36.316Z,17.63
2023-11-14T12:15:06.488Z,17.23
2023-11-14T12:17:36.682Z,20.07
2023-11-14T12:20:13.346Z,14.73
2023-11-14T12:22:43.965Z,14.27
2023-11-14T12:25:13.063Z,26.40
2023-11-14T12:27:41.502Z,15.63
2023-11-14T12:30:11.298Z,20.27
2023-11-14T12:32:40.265Z,19.37
2023-11-14T12:35:08.946Z,14.37
2023-11-14T12:37:37.352Z,24.10
2023-11-14T12:40:11.772Z,12.33
2023-11-14T12:42:40.258Z,13.40
2023-11-14T12:45:10.363Z,17.30
2023-11-14T12:47:40.459Z,14.57
2023-11-14T12:50:10.809Z,21.97
2023-11-14T12:52:40.009Z,16.53
2023-11-14T12:55:10.291Z,14.13
2023-11-14T12:57:38.618Z,13.70
2023-11-14T13:00:09.159Z,18.73
2023-11-14T13:02:40.378Z,17.23
2023-11-14T13:05:09.461Z,21.03
2023-11-14T13:07:37.747Z,18.20
2023-11-14T13:10:08.847Z,12.50
2023-11-14T13:12:38.604Z,17.83
2023-11-14T13:15:07.575Z,15.30
2023-11-14T13:17:36.024Z,15.33
2023-11-14T13:20:04.518Z,11.10
2023-11-14T13:22:35.966Z,14.43
2023-11-14T13:25:04.950Z,12.43
2023-11-14T13:27:33.838Z,10.57
2023-11-14T13:30:03.618Z,13.37
2023-11-14T13:32:33.264Z,9.03
2023-11-14T13:37:33.140Z,9.53
2023-11-14T13:40:07.605Z,11.17
2023-11-14T13:42:36.644Z,10.40
2023-11-14T13:45:06.828Z,9.23
2023-11-14T13:47:35.311Z,9.33
2023-11-14T13:50:06.830Z,10.30
2023-11-14T13:52:35.214Z,6.40
2023-11-14T13:55:04.225Z,8.67
2023-11-14T13:57:32.506Z,6.47
2023-11-14T14:00:00.775Z,8.77
2023-11-14T14:02:31.625Z,9.40
2023-11-14T14:05:00.079Z,7.63
2023-11-14T14:07:28.516Z,6.87
2023-11-14T14:09:57.871Z,8.30
2023-11-14T14:12:26.158Z,4.90
2023-11-14T14:14:54.417Z,9.10
2023-11-14T14:17:22.868Z,6.87
2023-11-14T14:19:52.831Z,5.10
2023-11-14T14:22:22.283Z,6.70
2023-11-14T14:24:51.736Z,8.20
2023-11-14T14:27:21.309Z,6.97
2023-11-14T14:29:50.159Z,7.20
2023-11-14T14:32:19.465Z,8.27
2023-11-14T14:34:48.256Z,9.47
2023-11-14T14:37:18.092Z,5.97
2023-11-14T14:39:50.793Z,8.13
2023-11-14T14:42:21.064Z,7.37
2023-11-14T14:44:49.394Z,10.83
2023-11-14T14:47:19.223Z,8.20
2023-11-14T14:49:48.045Z,9.07
2023-11-14T14:52:17.848Z,11.73
2023-11-14T14:54:46.180Z,9.77
2023-11-14T14:57:14.705Z,12.00
2023-11-14T14:59:42.987Z,9.40
2023-11-14T15:02:11.741Z,11.53
2023-11-14T15:04:40.209Z,9.97
2023-11-14T15:07:09.237Z,10.77
2023-11-14T15:09:39.021Z,9.57
2023-11-14T15:12:07.636Z,8.87
2023-11-14T15:14:38.283Z,9.93
2023-11-14T15:17:07.165Z,13.37
2023-11-14T15:19:35.581Z,12.73
2023-11-14T15:22:03.820Z,11.27
2023-11-14T15:24:32.543Z,9.73
2023-11-14T15:27:02.301Z,9.53
2023-11-14T15:29:30.725Z,8.00
2023-11-14T15:31:59.125Z,9.70
2023-11-14T15:34:27.434Z,10.00
2023-11-14T15:36:55.721Z,14.07
2023-11-14T15:39:25.109Z,8.07
2023-11-14T15:41:53.330Z,8.27
2023-11-14T15:44:23.119Z,11.27
2023-11-14T15:46:51.627Z,9.40
2023-11-14T15:49:19.873Z,18.30
2023-11-14T15:51:48.250Z,8.50
2023-11-14T15:54:18.505Z,7.00
2023-11-14T15:56:46.832Z,3.07
2023-11-14T15:59:14.940Z,3.70
2023-11-14T16:01:46.191Z,1.50
2023-11-14T16:04:15.962Z,3.00
2023-11-14T16:06:44.283Z,1.73
2023-11-14T16:09:12.510Z,2.10
2023-11-14T16:11:40.731Z,4.87
2023-11-14T16:14:08.992Z,2.67
2023-11-14T16:16:37.440Z,3.90
2023-11-14T16:19:07.159Z,2.33
2023-11-14T16:21:35.740Z,3.93
2023-11-14T16:24:06.376Z,1.50
2023-11-14T16:26:36.646Z,2.03
2023-11-14T16:29:05.076Z,1.23
2023-11-14T16:31:37.690Z,1.80
2023-11-14T16:34:07.705Z,4.03
2023-11-14T16:36:36.138Z,1.87
2023-11-14T16:39:05.276Z,1.73
2023-11-14T16:41:34.141Z,1.77
2023-11-14T16:44:02.662Z,2.63
2023-11-14T16:46:30.924Z,4.67
2023-11-14T16:48:59.250Z,5.53
2023-11-14T16:51:32.735Z,7.77
2023-11-14T16:54:01.741Z,7.13
2023-11-14T16:56:30.334Z,9.03
2023-11-14T16:59:00.615Z,9.20
2023-11-14T17:01:30.686Z,8.13
2023-11-14T17:04:01.404Z,7.07
2023-11-14T17:06:31.420Z,9.13
2023-11-14T17:09:00.059Z,5.10
2023-11-14T17:11:28.443Z,5.60
2023-11-14T17:13:56.748Z,6.57
2023-11-14T17:16:25.330Z,6.27
2023-11-14T17:18:53.654Z,5.93
2023-11-14T17:21:22.197Z,6.80
2023-11-14T17:23:52.670Z,6.10
2023-11-14T17:26:22.205Z,9.17
2023-11-14T17:28:51.105Z,7.43
2023-11-14T17:31:19.341Z,8.63
2023-11-14T17:33:47.633Z,9.37
2023-11-14T17:36:16.913Z,11.03
2023-11-14T17:38:45.133Z,12.30
2023-11-14T17:41:15.547Z,13.77
2023-11-14T17:43:44.888Z,16.93
2023-11-14T17:46:13.213Z,12.47
2023-11-14T17:48:41.719Z,12.67
2023-11-14T17:51:13.543Z,13.20
2023-11-14T17:53:46.266Z,14.97
2023-11-14T17:56:16.283Z,12.00
2023-11-14T17:58:45.637Z,10.17
2023-11-14T18:01:14.228Z,15.50
2023-11-14T18:03:44.086Z,12.07
2023-11-14T18:06:12.492Z,9.93
2023-11-14T18:08:42.929Z,9.77
2023-11-14T18:11:12.875Z,8.13
2023-11-14T18:13:42.851Z,6.37
2023-11-14T18:16:11.184Z,9.53
2023-11-14T18:18:39.770Z,7.70
2023-11-14T18:21:08.171Z,4.87
2023-11-14T18:23:36.568Z,5.73
2023-11-14T18:26:05.177Z,4.23
2023-11-14T18:28:33.478Z,6.13
2023-11-14T18:31:03.322Z,6.93
2023-11-14T18:33:32.309Z,9.67
2023-11-14T18:36:03.097Z,7.43
2023-11-14T18:38:31.419Z,6.33
2023-11-14T18:40:59.821Z,9.37
2023-11-14T18:43:29.888Z,17.77
2023-11-14T18:45:58.466Z,11.97
2023-11-14T18:48:28.323Z,15.43
2023-11-14T18:50:57.186Z,15.63
2023-11-14T18:53:27.961Z,12.43
2023-11-14T18:55:56.685Z,13.00
2023-11-14T18:58:25.075Z,18.30
2023-11-14T19:01:01.083Z,18.93
2023-11-14T19:03:33.089Z,14.87
2023-11-14T19:06:01.466Z,12.87
2023-11-14T19:08:30.198Z,13.77
2023-11-14T19:10:58.531Z,12.63
2023-11-14T19:13:26.801Z,10.10
2023-11-14T19:15:55.497Z,12.47
2023-11-14T19:18:23.825Z,12.43
2023-11-14T19:21:21.464Z,10.47
2023-11-14T19:23:44.899Z,10.00
2023-11-14T19:26:13.724Z,17.07
2023-11-14T19:28:44.305Z,20.17
2023-11-14T19:31:12.848Z,15.67
2023-11-14T19:33:41.373Z,15.23
2023-11-14T19:36:13.108Z,13.03
2023-11-14T19:38:41.741Z,10.63
2023-11-14T19:41:10.197Z,12.97
2023-11-14T19:43:38.484Z,20.57
2023-11-14T19:46:06.869Z,13.60
2023-11-14T19:48:35.279Z,15.40
2023-11-14T19:51:05.070Z,15.20
2023-11-14T19:53:34.986Z,14.13
2023-11-14T19:56:04.058Z,18.00
2023-11-14T19:58:32.619Z,16.43
2023-11-14T20:01:02.183Z,12.97
2023-11-14T20:03:31.347Z,18.00
2023-11-14T20:06:03.323Z,17.50
2023-11-14T20:08:34.511Z,15.43
2023-11-14T20:11:02.915Z,16.73
2023-11-14T20:13:31.594Z,18.30
2023-11-14T20:15:59.997Z,15.03
2023-11-14T20:18:28.342Z,13.50
2023-11-14T20:20:56.738Z,14.43
2023-11-14T20:23:25.148Z,12.23
2023-11-14T20:25:54.914Z,17.50
2023-11-14T20:28:24.943Z,17.30
2023-11-14T20:30:53.486Z,16.50
2023-11-14T20:33:23.530Z,18.33
2023-11-14T20:35:51.906Z,27.87
2023-11-14T20:38:20.153Z,16.73
2023-11-14T20:40:48.406Z,23.60
2023-11-14T20:43:18.264Z,21.70
2023-11-14T20:45:47.718Z,17.07
2023-11-14T20:48:18.689Z,14.20
2023-11-14T20:50:47.086Z,17.17
2023-11-14T20:53:15.529Z,15.27
2023-11-14T20:55:43.816Z,14.30
2023-11-14T20:58:11.895Z,17.57
2023-11-14T21:00:41.468Z,21.90
2023-11-14T21:03:09.964Z,19.50
2023-11-14T21:05:38.422Z,14.87
2023-11-14T21:08:07.009Z,17.90
2023-11-14T21:10:35.346Z,11.50
2023-11-14T21:13:04.074Z,13.07
2023-11-14T21:15:32.363Z,17.87
2023-11-14T21:18:02.462Z,19.00
2023-11-14T21:20:30.869Z,20.13
2023-11-14T21:22:59.229Z,20.07
2023-11-14T21:25:27.588Z,16.63
2023-11-14T21:27:56.094Z,15.70
2023-11-14T21:30:26.740Z,24.10
2023-11-14T21:32:57.413Z,24.40
2023-11-14T21:35:29.525Z,17.77
2023-11-14T21:37:57.892Z,16.53
2023-11-14T21:40:26.468Z,17.60
2023-11-14T21:42:54.746Z,14.83
2023-11-14T21:45:23.023Z,15.00
2023-11-14T21:47:52.090Z,17.03
2023-11-14T21:50:20.544Z,19.63
2023-11-14T21:52:50.225Z,24.60
2023-11-14T21:55:18.996Z,17.63
2023-11-14T21:57:47.268Z,16.03
2023-11-14T22:00:16.869Z,16.43
2023-11-14T22:02:45.220Z,18.63
2023-11-14T22:05:13.588Z,15.13
2023-11-14T22:07:42.009Z,17.50
2023-11-14T22:10:11.987Z,23.03
2023-11-14T22:12:40.183Z,14.33
2023-11-14T22:15:09.298Z,14.23
2023-11-14T22:17:37.727Z,15.23
2023-11-14T22:20:06.867Z,20.27
2023-11-14T22:22:35.111Z,16.80
2023-11-14T22:25:05.484Z,16.13
2023-11-14T22:27:35.262Z,23.67
2023-11-14T22:30:03.505Z,18.23
2023-11-14T22:32:31.905Z,16.03
2023-11-14T22:35:01.427Z,16.87
2023-11-14T22:37:30.162Z,18.97
2023-11-14T22:39:58.340Z,18.03
2023-11-14T22:42:26.593Z,21.30
2023-11-14T22:44:58.953Z,20.47
2023-11-14T22:47:28.387Z,17.67
2023-11-14T22:49:58.360Z,18.30
2023-11-14T22:52:26.881Z,15.20
2023-11-14T22:54:55.231Z,22.80
2023-11-14T22:57:23.437Z,20.10
2023-11-14T22:59:51.729Z,19.57
2023-11-14T23:02:21.493Z,20.07
2023-11-14T23:04:50.106Z,20.10
2023-11-14T23:07:18.785Z,24.73
2023-11-14T23:09:47.217Z,15.13
2023-11-14T23:12:16.824Z,18.63
2023-11-14T23:14:48.810Z,23.07
2023-11-14T23:17:17.115Z,17.17
2023-11-14T23:19:46.941Z,22.13
2023-11-14T23:22:18.063Z,18.63
2023-11-14T23:24:48.193Z,23.80
2023-11-14T23:27:16.526Z,17.23
2023-11-14T23:29:44.869Z,21.10
2023-11-14T23:32:13.061Z,17.47
2023-11-14T23:34:41.290Z,19.20
2023-11-14T23:37:11.051Z,19.40
2023-11-14T23:39:40.557Z,17.40
2023-11-14T23:42:09.764Z,15.23
2023-11-14T23:44:38.610Z,21.37
2023-11-14T23:47:07.117Z,20.33
2023-11-14T23:49:35.343Z,18.90
2023-11-14T23:52:03.718Z,17.87
2023-11-14T23:54:33.684Z,19.83
2023-11-14T23:57:01.981Z,19.63
2023-11-14T23:59:30.263Z,15.40
